Time;durP1;ratioP1;P1;durP2;ratioP2;P2;SDS_P1;SDS_P2;PMS_P1;PMS_P2;Temp;Humidity;BMP_temperature;BMP_pressure;BME280_temperature;BME280_humidity;BME280_pressure;Samples;Min_cycle;Max_cycle;Signal;HPM_P1;HPM_P2
2023/12/12 00:02:42;;;;;;;11.20;10.10;;;;;;;21.63;31.67;94755.63;6155651;28;109122;-57
2023/12/12 00:05:45;;;;;;;10.30;9.30;;;;;;;21.63;31.24;94760.94;6147487;28;109422;-58
2023/12/12 00:08:48;;;;;;;11.20;9.73;;;;;;;21.63;31.77;94749.50;6148698;28;109321;-57
2023/12/12 00:11:54;;;;;;;9.30;8.40;;;;;;;21.64;31.66;94740.44;6157829;28;109118;-57
2023/12/12 00:14:57;;;;;;;10.47;9.50;;;;;;;21.63;31.31;94741.53;6153276;28;109228;-57
2023/12/12 00:18:00;;;;;;;9.97;8.97;;;;;;;21.64;31.22;94740.44;6150434;28;109285;-58
2023/12/12 00:21:04;;;;;;;10.67;9.27;;;;;;;21.64;31.08;94740.44;6155662;28;111737;-57
2023/12/12 00:24:07;;;;;;;10.47;9.47;;;;;;;21.63;31.28;94721.00;6161518;28;111858;-57
2023/12/12 00:27:11;;;;;;;9.87;8.87;;;;;;;21.64;31.51;94732.44;6136641;28;109265;-58
2023/12/12 00:30:14;;;;;;;10.87;9.77;;;;;;;21.65;31.21;94728.69;6156524;28;109022;-59
2023/12/12 00:33:18;;;;;;;11.00;9.90;;;;;;;21.66;31.05;94743.56;6158194;28;109111;-57
2023/12/12 00:36:21;;;;;;;10.13;9.13;;;;;;;21.66;31.51;94756.88;6154623;28;109078;-58
2023/12/12 00:39:24;;;;;;;9.50;8.60;;;;;;;21.64;31.31;94741.22;6133349;28;109660;-57
2023/12/12 00:42:32;;;;;;;10.60;9.50;;;;;;;21.64;31.05;94730.56;6150281;28;109197;-60
2023/12/12 00:45:35;;;;;;;9.60;8.70;;;;;;;21.68;31.00;94736.06;6159574;28;109148;-57
2023/12/12 00:48:39;;;;;;;10.17;9.27;;;;;;;21.71;31.33;94735.44;6149204;28;109567;-58
2023/12/12 00:51:42;;;;;;;9.30;8.50;;;;;;;21.71;31.52;94730.91;6130177;28;109159;-58
2023/12/12 00:54:45;;;;;;;9.73;8.90;;;;;;;21.71;31.39;94727.47;6138253;28;108926;-57
2023/12/12 00:57:49;;;;;;;9.77;8.87;;;;;;;21.71;31.64;94714.94;6148993;28;109076;-57
2023/12/12 01:00:53;;;;;;;9.60;8.70;;;;;;;21.71;31.60;94744.22;6150927;28;111782;-58
2023/12/12 01:03:56;;;;;;;9.60;8.70;;;;;;;21.72;31.71;94753.00;6142687;28;109048;-57
2023/12/12 01:06:59;;;;;;;8.97;8.07;;;;;;;21.71;31.33;94762.06;6150914;28;109271;-57
2023/12/12 01:10:02;;;;;;;12.00;8.87;;;;;;;21.69;31.67;94738.41;6144900;28;109145;-57
2023/12/12 01:13:07;;;;;;;10.10;9.10;;;;;;;21.69;31.93;94740.31;6128562;28;109143;-57
2023/12/12 01:16:10;;;;;;;9.97;8.97;;;;;;;21.70;31.52;94761.28;6155185;28;109245;-58
2023/12/12 01:19:13;;;;;;;9.70;8.77;;;;;;;21.71;31.76;94770.06;6147222;28;109115;-57
2023/12/12 01:22:16;;;;;;;10.43;9.43;;;;;;;21.71;31.88;94767.41;6138531;28;109679;-58
2023/12/12 01:25:19;;;;;;;9.57;8.70;;;;;;;21.66;31.39;94759.53;6136283;28;109283;-58
2023/12/12 01:28:24;;;;;;;9.10;8.20;;;;;;;21.69;31.38;94751.75;6159135;28;109023;-57
2023/12/12 01:31:27;;;;;;;9.90;8.90;;;;;;;21.71;31.30;94772.72;6153778;28;109176;-57
2023/12/12 01:34:30;;;;;;;9.70;8.80;;;;;;;21.71;31.44;94765.53;6151263;28;109145;-57
2023/12/12 01:37:33;;;;;;;9.17;8.23;;;;;;;21.70;31.78;94769.28;6143161;28;110168;-58
2023/12/12 01:40:37;;;;;;;9.33;8.53;;;;;;;21.69;31.55;94762.38;6156867;28;109109;-58
2023/12/12 01:43:41;;;;;;;8.60;7.80;;;;;;;21.71;31.61;94752.22;6161977;28;109110;-58
2023/12/12 01:46:46;;;;;;;8.70;7.90;;;;;;;21.70;31.88;94755.19;6130912;28;109303;-57
2023/12/12 01:49:50;;;;;;;9.00;8.20;;;;;;;21.68;31.57;94749.38;6159220;28;109220;-57
2023/12/12 01:52:53;;;;;;;10.90;8.27;;;;;;;21.67;32.02;94734.47;6161916;28;108883;-58
2023/12/12 01:55:58;;;;;;;8.70;7.90;;;;;;;21.67;31.75;94761.09;6155245;28;110061;-57
2023/12/12 01:59:03;;;;;;;9.40;8.50;;;;;;;21.71;31.56;94757.53;6144960;28;110048;-58
2023/12/12 02:02:07;;;;;;;8.93;8.03;;;;;;;21.71;31.64;94746.09;6155020;28;109590;-58
2023/12/12 02:05:12;;;;;;;9.63;8.63;;;;;;;21.69;31.65;94759.72;6158490;28;109163;-59
2023/12/12 02:08:15;;;;;;;8.63;7.83;;;;;;;21.69;31.71;94758.94;6158566;28;109602;-59
2023/12/12 02:11:19;;;;;;;9.87;8.97;;;;;;;21.69;32.00;94758.94;6156096;28;109166;-59
2023/12/12 02:14:24;;;;;;;9.80;8.23;;;;;;;21.68;31.96;94768.03;6161446;28;109026;-59
2023/12/12 02:17:27;;;;;;;9.27;8.40;;;;;;;21.68;32.01;94782.13;6149310;28;109052;-59
2023/12/12 02:20:30;;;;;;;9.57;8.57;;;;;;;21.69;31.77;94764.28;6143277;28;109061;-60
2023/12/12 02:23:35;;;;;;;9.20;8.30;;;;;;;21.69;32.13;94774.91;6162167;28;109598;-59
2023/12/12 02:26:38;;;;;;;9.40;8.50;;;;;;;21.67;31.54;94767.22;6161573;28;109092;-58
2023/12/12 02:29:41;;;;;;;9.33;8.43;;;;;;;21.68;32.10;94784.00;6161907;28;109343;-59
2023/12/12 02:32:44;;;;;;;9.07;8.27;;;;;;;21.67;31.74;94775.19;6149672;28;109419;-60
2023/12/12 02:35:48;;;;;;;9.47;8.57;;;;;;;21.66;31.59;94775.50;6141922;28;109192;-58
2023/12/12 02:38:52;;;;;;;8.97;8.07;;;;;;;21.65;31.79;94771.28;6149112;28;109412;-58
2023/12/12 02:41:55;;;;;;;9.00;8.20;;;;;;;21.65;31.66;94784.59;6138860;28;109237;-58
2023/12/12 02:44:58;;;;;;;9.80;8.77;;;;;;;21.64;31.76;94772.38;6128593;28;109272;-58
2023/12/12 02:48:02;;;;;;;8.90;8.10;;;;;;;21.64;31.75;94780.38;6160011;28;108929;-58
2023/12/12 02:51:06;;;;;;;10.07;9.07;;;;;;;21.64;31.63;94799.00;6140695;28;112252;-58
2023/12/12 02:54:10;;;;;;;9.93;8.93;;;;;;;21.64;32.10;94814.97;6149902;28;108940;-59
2023/12/12 02:57:14;;;;;;;9.40;8.60;;;;;;;21.64;31.85;94817.66;6159909;28;109200;-58
2023/12/12 03:00:17;;;;;;;10.23;9.23;;;;;;;21.62;31.82;94825.16;6146469;28;109563;-58
2023/12/12 03:03:20;;;;;;;10.40;9.43;;;;;;;21.62;31.99;94803.88;6138497;28;109480;-58
2023/12/12 03:06:23;;;;;;;9.80;8.90;;;;;;;21.61;31.86;94787.09;6139025;28;109268;-58
2023/12/12 03:09:28;;;;;;;9.40;8.60;;;;;;;21.61;31.59;94784.44;6149991;28;108911;-59
2023/12/12 03:12:31;;;;;;;9.67;8.77;;;;;;;21.63;31.75;94787.56;6162292;28;109276;-58
2023/12/12 03:15:34;;;;;;;9.97;9.07;;;;;;;21.61;31.51;94781.78;6153208;28;109685;-58
2023/12/12 03:18:37;;;;;;;9.53;8.63;;;;;;;21.63;31.95;94792.13;6151307;28;110214;-58
2023/12/12 03:21:40;;;;;;;10.10;9.20;;;;;;;21.63;31.52;94773.47;6150332;28;109356;-58
2023/12/12 03:24:45;;;;;;;9.60;8.60;;;;;;;21.59;31.97;94765.31;6148885;28;110486;-59
2023/12/12 03:27:48;;;;;;;11.07;10.03;;;;;;;21.64;31.31;94757.19;6155735;28;109205;-58
2023/12/12 03:30:52;;;;;;;9.80;8.90;;;;;;;21.64;31.50;94761.72;6154576;28;109129;-58
2023/12/12 03:33:55;;;;;;;9.33;8.47;;;;;;;21.64;31.68;94773.16;6154074;28;109031;-59
2023/12/12 03:36:58;;;;;;;10.00;9.00;;;;;;;21.66;31.91;94765.66;6160314;28;109334;-58
2023/12/12 03:40:03;;;;;;;9.97;9.07;;;;;;;21.65;31.80;94782.72;6144783;28;109493;-62
2023/12/12 03:43:07;;;;;;;10.30;9.33;;;;;;;21.65;31.51;94756.09;6162243;28;108834;-58
2023/12/12 03:46:12;;;;;;;9.93;9.00;;;;;;;21.65;31.67;94772.06;6156391;28;109061;-59
2023/12/12 03:49:15;;;;;;;10.67;9.50;;;;;;;21.65;31.72;94772.06;6157223;28;109250;-58
2023/12/12 03:52:18;;;;;;;10.20;9.20;;;;;;;21.65;31.42;94761.41;6126331;28;109153;-59
2023/12/12 03:55:24;;;;;;;11.00;10.00;;;;;;;21.65;31.76;94782.72;6148900;28;109052;-59
2023/12/12 03:58:27;;;;;;;10.63;9.37;;;;;;;21.66;31.48;94780.84;6161831;28;109370;-58
2023/12/12 04:01:31;;;;;;;10.60;9.60;;;;;;;21.66;31.35;94773.63;6152348;28;109361;-58
2023/12/12 04:04:35;;;;;;;11.17;10.07;;;;;;;21.69;31.95;94782.91;6149277;28;110013;-58
2023/12/12 04:07:38;;;;;;;10.43;9.53;;;;;;;21.73;31.38;94775.88;6160421;28;109553;-58
2023/12/12 04:10:43;;;;;;;11.47;10.37;;;;;;;21.73;31.71;94776.66;6144563;28;110616;-58
2023/12/12 04:13:46;;;;;;;10.83;9.40;;;;;;;21.75;31.83;94797.66;6139609;28;109323;-58
2023/12/12 04:16:49;;;;;;;11.13;9.63;;;;;;;21.75;31.25;94797.66;6158267;28;110635;-58
2023/12/12 04:19:53;;;;;;;12.77;10.03;;;;;;;21.77;31.41;94798.13;6151297;28;109336;-59
2023/12/12 04:22:56;;;;;;;13.60;12.17;;;;;;;21.84;31.57;94806.47;6150872;28;108877;-58
2023/12/12 04:26:00;;;;;;;16.30;14.60;;;;;;;21.80;31.72;94802.81;6133399;28;109123;-58
2023/12/12 04:29:04;;;;;;;17.00;15.50;;;;;;;21.81;31.32;94804.38;6145211;28;109312;-58
2023/12/12 04:32:07;;;;;;;16.90;15.30;;;;;;;21.80;31.56;94798.28;6136716;28;109183;-59
2023/12/12 04:35:11;;;;;;;16.93;15.43;;;;;;;21.84;31.64;94790.47;6145467;28;109314;-58
2023/12/12 04:38:14;;;;;;;17.30;15.50;;;;;;;21.91;31.71;94808.69;6145121;28;109348;-58
2023/12/12 04:41:19;;;;;;;17.43;15.93;;;;;;;21.89;31.57;94806.34;6157577;28;109141;-58
2023/12/12 04:44:22;;;;;;;18.67;16.63;;;;;;;21.86;32.14;94806.19;6155913;28;109907;-57
2023/12/12 04:47:25;;;;;;;16.43;14.83;;;;;;;21.89;32.33;94810.88;6144752;28;109260;-57
2023/12/12 04:50:28;;;;;;;16.43;14.83;;;;;;;21.85;32.76;94816.03;6148313;28;109103;-58
2023/12/12 04:53:32;;;;;;;16.63;15.07;;;;;;;21.97;33.11;94813.56;6160673;28;109369;-58
2023/12/12 04:56:36;;;;;;;17.20;15.10;;;;;;;22.17;33.67;94824.72;6146089;28;109470;-58
2023/12/12 04:59:39;;;;;;;16.43;14.93;;;;;;;22.22;33.68;94832.59;6148407;28;109525;-59
2023/12/12 05:02:42;;;;;;;17.93;14.53;;;;;;;22.23;33.35;94826.94;6148108;28;111861;-60
2023/12/12 05:05:47;;;;;;;16.33;14.63;;;;;;;22.19;33.20;94835.88;6153853;28;110359;-58
2023/12/12 05:08:50;;;;;;;15.27;13.87;;;;;;;22.08;34.27;94836.16;6156251;28;108948;-58
2023/12/12 05:11:55;;;;;;;15.20;13.60;;;;;;;22.15;33.97;94845.56;6149923;28;109049;-59
2023/12/12 05:14:58;;;;;;;15.33;13.83;;;;;;;22.15;33.87;94851.69;6149749;28;109285;-59
2023/12/12 05:18:02;;;;;;;14.93;13.53;;;;;;;22.18;33.53;94852.94;6161671;28;108869;-59
2023/12/12 05:21:06;;;;;;;14.80;13.30;;;;;;;22.02;33.97;94847.28;6149964;28;108885;-58
2023/12/12 05:24:09;;;;;;;14.17;12.20;;;;;;;21.91;33.61;94848.66;6129678;28;109268;-58
2023/12/12 05:27:14;;;;;;;13.47;12.27;;;;;;;21.85;34.01;94852.56;6139260;28;109274;-59
2023/12/12 05:30:17;;;;;;;14.40;12.83;;;;;;;21.87;33.56;94867.13;6141962;28;109129;-59
2023/12/12 05:33:20;;;;;;;14.60;12.70;;;;;;;21.85;33.64;94858.66;6156283;28;109096;-60
2023/12/12 05:36:24;;;;;;;14.40;12.90;;;;;;;21.83;33.72;94860.03;6145620;28;109435;-58
2023/12/12 05:39:27;;;;;;;14.00;12.50;;;;;;;21.79;33.66;94860.63;6139787;28;109154;-59
2023/12/12 05:42:31;;;;;;;15.17;13.00;;;;;;;21.78;33.60;94853.75;6163813;28;109189;-59
2023/12/12 05:45:34;;;;;;;17.53;13.43;;;;;;;21.78;33.83;94860.94;6152754;28;109353;-58
2023/12/12 05:48:38;;;;;;;13.70;12.40;;;;;;;21.77;33.19;94856.72;6163936;28;109137;-58
2023/12/12 05:51:41;;;;;;;13.57;12.37;;;;;;;21.76;33.68;94863.91;6163288;28;109376;-58
2023/12/12 05:54:46;;;;;;;13.20;12.00;;;;;;;21.75;33.60;94867.69;6162013;28;109360;-58
2023/12/12 05:57:50;;;;;;;13.90;12.37;;;;;;;21.74;33.51;94866.09;6130291;28;109328;-58
2023/12/12 06:00:54;;;;;;;13.40;12.10;;;;;;;21.74;33.50;94862.66;6152668;28;109083;-58
2023/12/12 06:03:57;;;;;;;13.03;11.60;;;;;;;21.71;33.28;94856.06;6139544;28;109088;-58
2023/12/12 06:07:01;;;;;;;12.50;11.23;;;;;;;21.72;32.94;94856.84;6134701;28;109012;-59
2023/12/12 06:10:06;;;;;;;12.90;11.70;;;;;;;21.70;32.84;94859.03;6133734;28;109700;-59
2023/12/12 06:13:10;;;;;;;14.63;11.93;;;;;;;21.69;33.24;94854.81;6139386;28;109247;-59
2023/12/12 06:16:14;;;;;;;15.43;13.13;;;;;;;21.70;33.28;94867.03;6139119;28;109063;-58
2023/12/12 06:19:20;;;;;;;13.30;11.90;;;;;;;21.68;32.95;94861.25;6128179;28;109065;-59
2023/12/12 06:22:24;;;;;;;14.83;12.20;;;;;;;21.68;33.32;94858.56;6138894;28;109388;-60
2023/12/12 06:25:27;;;;;;;15.17;12.17;;;;;;;21.69;33.15;94854.81;6139193;28;108861;-59
2023/12/12 06:28:32;;;;;;;13.97;12.50;;;;;;;21.72;32.87;94864.84;6137090;28;109604;-58
2023/12/12 06:31:36;;;;;;;13.30;12.00;;;;;;;21.85;32.88;94853.34;6128684;28;110071;-58
2023/12/12 06:34:39;;;;;;;12.97;11.77;;;;;;;21.91;33.10;94857.41;6138957;28;109113;-59
2023/12/12 06:37:43;;;;;;;13.67;10.40;;;;;;;21.84;32.79;94854.41;6138540;28;108975;-59
2023/12/12 06:40:46;;;;;;;12.43;11.13;;;;;;;21.83;33.17;94850.19;6145181;28;109167;-58
2023/12/12 06:43:51;;;;;;;12.50;11.20;;;;;;;21.81;32.93;94866.44;6154790;28;110623;-59
2023/12/12 06:46:54;;;;;;;12.10;10.90;;;;;;;21.84;32.80;94867.72;6162118;28;109156;-59
2023/12/12 06:49:57;;;;;;;12.63;11.43;;;;;;;21.85;32.82;94864.00;6162488;28;108911;-60
2023/12/12 06:53:00;;;;;;;13.73;11.70;;;;;;;21.87;32.83;94861.81;6153677;28;109765;-59
2023/12/12 06:56:05;;;;;;;12.07;10.90;;;;;;;22.17;32.25;94875.34;6153136;28;109817;-58
2023/12/12 06:59:10;;;;;;;12.90;11.60;;;;;;;22.58;32.03;94889.13;6137713;28;109424;-58
2023/12/12 07:02:14;;;;;;;11.83;10.60;;;;;;;22.87;31.58;94887.72;6138399;28;109362;-58
2023/12/12 07:05:17;;;;;;;12.10;10.73;;;;;;;22.96;31.26;94886.63;6127815;28;111167;-59
2023/12/12 07:08:21;;;;;;;12.30;10.97;;;;;;;22.91;31.21;94891.34;6137611;28;109214;-59
2023/12/12 07:11:24;;;;;;;12.63;10.50;;;;;;;22.69;31.83;94895.72;6138252;28;109838;-59
2023/12/12 07:14:29;;;;;;;11.60;10.40;;;;;;;23.02;31.48;94889.94;6138413;28;108929;-58
2023/12/12 07:17:32;;;;;;;11.80;10.70;;;;;;;23.13;30.70;94891.16;6126708;28;109082;-58
2023/12/12 07:20:35;;;;;;;11.57;10.37;;;;;;;23.20;31.09;94912.06;6153696;28;109044;-59
2023/12/12 07:23:39;;;;;;;11.50;10.40;;;;;;;23.02;31.26;94908.59;6137916;28;109143;-58
2023/12/12 07:26:44;;;;;;;11.73;10.63;;;;;;;22.78;31.68;94889.59;6132697;28;109280;-59
2023/12/12 07:29:49;;;;;;;11.80;10.60;;;;;;;22.68;31.56;94902.16;6134341;28;109279;-59
2023/12/12 07:32:52;;;;;;;10.77;9.70;;;;;;;22.65;31.70;94896.66;6137636;28;109256;-58
2023/12/12 07:35:55;;;;;;;11.33;10.23;;;;;;;22.62;31.82;94900.72;6138311;28;111707;-58
2023/12/12 07:39:00;;;;;;;9.90;8.90;;;;;;;22.60;32.08;94905.59;6127478;28;108843;-59
2023/12/12 07:42:04;;;;;;;11.47;10.30;;;;;;;22.59;31.78;94916.56;6136769;28;108894;-58
2023/12/12 07:45:10;;;;;;;10.70;9.63;;;;;;;22.56;31.90;94915.28;6137576;28;109299;-58
2023/12/12 07:48:13;;;;;;;11.33;10.10;;;;;;;22.54;32.38;94909.47;6137216;28;109854;-58
2023/12/12 07:51:17;;;;;;;11.20;9.50;;;;;;;22.54;32.02;94895.38;6127109;28;109078;-58
2023/12/12 07:54:20;;;;;;;11.47;10.27;;;;;;;22.51;32.22;94906.63;6137484;28;109573;-58
2023/12/12 07:57:23;;;;;;;10.60;9.63;;;;;;;22.51;32.39;94909.28;6137946;28;108967;-59
2023/12/12 08:00:27;;;;;;;11.10;10.10;;;;;;;22.53;32.28;94902.59;6133600;28;109749;-60
2023/12/12 08:03:31;;;;;;;10.50;9.60;;;;;;;22.51;32.36;94902.06;6132454;28;109317;-59
2023/12/12 08:06:34;;;;;;;10.70;9.80;;;;;;;22.48;32.09;94896.59;6137202;28;109191;-59
2023/12/12 08:09:37;;;;;;;10.70;9.63;;;;;;;22.48;31.79;94900.03;6136267;28;110060;-59
2023/12/12 08:12:40;;;;;;;9.90;9.00;;;;;;;22.47;32.02;94895.81;6144538;28;109140;-58
2023/12/12 08:15:45;;;;;;;10.77;9.77;;;;;;;22.45;31.77;94895.34;6158634;28;109277;-58
2023/12/12 08:18:48;;;;;;;10.87;9.87;;;;;;;22.44;32.16;94890.31;6137014;28;109464;-58
2023/12/12 08:21:51;;;;;;;9.97;9.00;;;;;;;22.44;32.34;94899.09;6137132;28;109045;-58
2023/12/12 08:24:54;;;;;;;10.23;9.30;;;;;;;22.45;32.47;94902.56;6126958;28;109566;-58
2023/12/12 08:27:58;;;;;;;10.90;9.37;;;;;;;22.43;32.17;94905.53;6136538;28;109274;-58
2023/12/12 08:31:03;;;;;;;8.77;7.97;;;;;;;22.43;32.39;94905.53;6135778;28;109087;-58
2023/12/12 08:34:07;;;;;;;9.90;9.00;;;;;;;22.44;32.27;94895.66;6136624;28;109041;-58
2023/12/12 08:37:10;;;;;;;10.50;9.03;;;;;;;22.42;32.00;94898.63;6126063;28;109111;-58
2023/12/12 08:40:13;;;;;;;10.70;9.70;;;;;;;22.44;32.34;94900.97;6152128;28;109144;-58
2023/12/12 08:43:17;;;;;;;10.33;9.33;;;;;;;22.41;32.01;94889.84;6160318;28;109190;-58
2023/12/12 08:46:26;;;;;;;10.03;9.03;;;;;;;22.37;31.86;94883.56;6154995;28;109543;-59
2023/12/12 08:49:30;;;;;;;9.73;8.80;;;;;;;22.36;31.92;94890.00;6156517;28;110451;-58
2023/12/12 08:52:33;;;;;;;9.47;8.63;;;;;;;22.36;32.05;94898.00;6160345;28;110132;-59
2023/12/12 08:55:40;;;;;;;10.00;9.10;;;;;;;22.35;32.21;94890.31;6160920;28;109039;-59
2023/12/12 08:58:44;;;;;;;10.00;9.00;;;;;;;22.33;32.42;94895.94;6149342;28;109266;-59
2023/12/12 09:01:52;;;;;;;9.27;8.37;;;;;;;22.31;32.31;94892.00;6159443;28;108990;-58
2023/12/12 09:04:55;;;;;;;9.07;8.27;;;;;;;22.30;32.11;94890.44;6160577;28;111200;-58
2023/12/12 09:07:59;;;;;;;9.23;8.40;;;;;;;22.33;31.90;94889.81;6159588;28;109051;-59
2023/12/12 09:11:03;;;;;;;9.67;8.77;;;;;;;22.34;32.38;94886.84;6148531;28;109667;-58
2023/12/12 09:14:06;;;;;;;8.83;8.03;;;;;;;22.34;32.34;94892.16;6135929;28;108964;-58
2023/12/12 09:17:10;;;;;;;8.70;7.90;;;;;;;22.36;31.95;94899.88;6135877;28;109447;-58
2023/12/12 09:20:13;;;;;;;8.90;8.00;;;;;;;22.35;32.57;94893.75;6131378;28;109027;-59
2023/12/12 09:23:17;;;;;;;9.00;8.10;;;;;;;22.31;32.30;94900.00;6130441;28;109735;-58
2023/12/12 09:26:20;;;;;;;9.40;8.50;;;;;;;22.30;32.44;94909.09;6136021;28;109177;-57
2023/12/12 09:29:23;;;;;;;8.70;7.90;;;;;;;22.29;32.51;94899.53;6136310;28;112018;-58
2023/12/12 09:32:28;;;;;;;9.37;8.47;;;;;;;22.31;32.00;94908.78;6125626;28;111868;-61
2023/12/12 09:35:31;;;;;;;8.93;8.03;;;;;;;22.33;32.32;94906.59;6135810;28;109323;-59
2023/12/12 09:38:35;;;;;;;11.63;10.53;;;;;;;22.33;31.91;94900.47;6153790;28;109143;-59
2023/12/12 09:41:39;;;;;;;24.80;22.50;;;;;;;22.30;32.22;94895.78;6135473;28;108790;-59
2023/12/12 09:44:43;;;;;;;32.57;29.60;;;;;;;22.28;32.49;94885.41;6125781;28;109410;-59
2023/12/12 09:47:48;;;;;;;40.37;36.50;;;;;;;22.28;32.36;94889.97;6135659;28;109077;-58
2023/12/12 09:50:54;;;;;;;42.27;38.30;;;;;;;22.42;32.34;94894.09;6149490;28;109263;-58
2023/12/12 09:53:57;;;;;;;47.17;42.80;;;;;;;22.50;33.16;94879.19;6137016;28;109556;-58
2023/12/12 09:57:00;;;;;;;45.90;41.80;;;;;;;22.48;32.61;94876.03;6132356;28;109273;-58
2023/12/12 10:00:04;;;;;;;47.33;43.13;;;;;;;22.40;32.58;94872.28;6159685;28;109161;-59
2023/12/12 10:03:09;;;;;;;50.83;46.30;;;;;;;22.36;32.79;94868.69;6158720;28;109122;-59
2023/12/12 10:06:13;;;;;;;50.33;45.73;;;;;;;22.33;32.61;94868.50;6153520;28;109189;-61
2023/12/12 10:09:16;;;;;;;46.07;41.77;;;;;;;22.30;32.65;94869.13;6138064;28;109226;-58
2023/12/12 10:12:20;;;;;;;45.10;41.00;;;;;;;22.27;32.85;94870.53;6139748;28;111828;-59
2023/12/12 10:15:25;;;;;;;42.37;38.47;;;;;;;22.27;32.99;94869.75;6138985;28;109277;-58
2023/12/12 10:18:30;;;;;;;40.70;37.07;;;;;;;22.26;32.52;94870.84;6129414;28;109917;-59
2023/12/12 10:21:33;;;;;;;37.80;34.30;;;;;;;22.26;32.53;94876.16;6139600;28;109532;-59
2023/12/12 10:24:40;;;;;;;37.40;33.97;;;;;;;22.23;32.93;94861.59;6139999;28;111772;-59
2023/12/12 10:27:43;;;;;;;35.93;32.73;;;;;;;22.23;32.87;94876.78;6139102;28;109300;-58
2023/12/12 10:30:52;;;;;;;33.77;30.80;;;;;;;22.24;32.39;94886.38;6128491;28;109283;-59
2023/12/12 10:33:58;;;;;;;32.77;29.77;;;;;;;22.23;32.63;94885.56;6158134;28;109149;-59
2023/12/12 10:37:02;;;;;;;32.00;28.80;;;;;;;22.21;33.02;94894.97;6158130;28;109316;-59
2023/12/12 10:40:15;;;;;;;31.93;28.93;;;;;;;22.19;32.60;94878.50;6133233;28;109067;-59
2023/12/12 10:43:20;;;;;;;29.87;27.17;;;;;;;22.18;33.01;94866.25;6138237;28;109124;-59
2023/12/12 10:46:26;;;;;;;27.67;25.17;;;;;;;22.17;32.88;94865.47;6138988;28;109129;-58
2023/12/12 10:49:32;;;;;;;26.57;24.27;;;;;;;22.15;33.11;94873.00;6138761;28;109430;-59
2023/12/12 10:52:36;;;;;;;25.70;23.20;;;;;;;22.15;32.66;94873.00;6127988;28;109103;-59
2023/12/12 10:55:40;;;;;;;23.90;21.80;;;;;;;22.14;32.75;94886.63;6138745;28;109051;-58
2023/12/12 10:58:45;;;;;;;23.77;21.67;;;;;;;22.14;33.01;94895.41;6139091;28;111861;-59
2023/12/12 11:01:48;;;;;;;22.83;20.83;;;;;;;22.14;33.20;94886.63;6139286;28;111995;-59
2023/12/12 11:04:55;;;;;;;22.33;20.20;;;;;;;22.14;33.00;94886.63;6127357;28;109251;-59
2023/12/12 11:07:59;;;;;;;21.17;19.30;;;;;;;22.15;32.61;94882.88;6138159;28;109305;-59
2023/12/12 11:11:07;;;;;;;20.13;18.07;;;;;;;22.14;32.92;94882.09;6138114;28;109128;-59
2023/12/12 11:14:11;;;;;;;18.83;17.17;;;;;;;22.15;32.86;94882.88;6152145;28;109447;-58
2023/12/12 11:17:15;;;;;;;18.93;17.27;;;;;;;22.14;33.08;94875.97;6153705;28;112206;-58
2023/12/12 11:20:21;;;;;;;17.93;16.40;;;;;;;22.15;32.54;94877.53;6137997;28;109102;-58
2023/12/12 11:23:55;;;;;;;17.17;15.63;;;;;;;22.14;33.00;94881.31;6152224;28;112792;-59
2023/12/12 11:26:58;;;;;;;15.47;14.07;;;;;;;22.12;32.73;94873.63;6152334;28;111205;-59
2023/12/12 11:30:02;;;;;;;17.00;15.40;;;;;;;22.12;33.16;94870.97;6161944;28;109650;-59
2023/12/12 11:33:06;;;;;;;18.30;16.47;;;;;;;22.11;33.24;94869.38;6151790;28;109609;-59
2023/12/12 11:36:26;;;;;;;15.03;13.60;;;;;;;22.14;33.21;94879.44;6137034;28;109098;-59
2023/12/12 11:39:31;;;;;;;16.73;13.03;;;;;;;22.12;32.97;94870.97;6145673;28;110095;-59
2023/12/12 11:42:34;;;;;;;15.53;13.93;;;;;;;22.11;33.00;94862.19;6137878;28;109382;-59
2023/12/12 11:45:37;;;;;;;16.27;13.77;;;;;;;22.11;32.97;94856.06;6137665;28;109107;-60
2023/12/12 11:48:40;;;;;;;15.50;13.10;;;;;;;22.10;33.33;94851.84;6140934;28;109481;-58
2023/12/12 11:51:46;;;;;;;12.40;11.10;;;;;;;22.11;32.98;94850.72;6161800;28;109158;-58
2023/12/12 11:54:53;;;;;;;14.23;12.23;;;;;;;22.11;33.00;94843.53;6161559;28;109029;-58
2023/12/12 11:58:01;;;;;;;12.40;11.10;;;;;;;22.14;33.18;94841.31;6161396;28;109201;-58
2023/12/12 12:01:05;;;;;;;12.10;10.80;;;;;;;22.14;32.78;94844.00;6150609;28;109543;-58
2023/12/12 12:04:08;;;;;;;13.77;10.40;;;;;;;22.14;33.03;94841.31;6144305;28;110817;-59
2023/12/12 12:07:13;;;;;;;12.30;10.67;;;;;;;22.14;33.33;94852.00;6136583;28;109288;-59
2023/12/12 12:10:16;;;;;;;11.33;9.70;;;;;;;22.15;32.78;94850.88;6149819;28;109605;-58
2023/12/12 12:13:20;;;;;;;13.23;9.20;;;;;;;22.14;32.90;94849.31;6141073;28;110208;-58
2023/12/12 12:16:23;;;;;;;11.73;9.40;;;;;;;22.14;32.79;94844.00;6136906;28;109241;-58
2023/12/12 12:19:33;;;;;;;12.03;9.07;;;;;;;22.12;33.14;94844.31;6136897;28;109563;-58
2023/12/12 12:22:39;;;;;;;12.37;9.60;;;;;;;22.14;32.96;94849.31;6131578;28;109382;-59
2023/12/12 12:25:42;;;;;;;12.97;9.27;;;;;;;22.13;32.76;94847.75;6134574;28;109130;-59
2023/12/12 12:28:46;;;;;;;10.37;8.83;;;;;;;22.11;32.82;94856.84;6149404;28;109375;-59
2023/12/12 12:31:49;;;;;;;10.30;8.50;;;;;;;22.13;32.94;94853.09;6161273;28;109060;-58
2023/12/12 12:35:06;;;;;;;12.33;8.87;;;;;;;22.13;33.07;94863.75;6138799;28;109329;-58
2023/12/12 12:38:25;;;;;;;14.40;8.87;;;;;;;22.11;32.81;94862.19;6152617;28;109032;-58
2023/12/12 12:41:28;;;;;;;10.97;8.77;;;;;;;22.11;33.26;94864.84;6137210;28;111820;-59
2023/12/12 12:44:33;;;;;;;11.97;7.93;;;;;;;22.10;33.05;94865.16;6136544;28;109437;-59
2023/12/12 12:47:36;;;;;;;12.60;7.80;;;;;;;22.13;33.01;94858.41;6126036;28;108892;-58
2023/12/12 12:50:41;;;;;;;11.20;8.50;;;;;;;22.12;32.91;94862.97;6136718;28;109088;-59
2023/12/12 12:53:45;;;;;;;11.20;7.50;;;;;;;22.12;32.78;94862.97;6136581;28;109859;-59
2023/12/12 12:56:49;;;;;;;11.00;8.07;;;;;;;22.12;32.82;94854.97;6138717;28;109657;-59
2023/12/12 12:59:52;;;;;;;12.40;8.00;;;;;;;22.14;33.18;94854.66;6160211;28;109746;-59
2023/12/12 13:02:56;;;;;;;12.20;7.67;;;;;;;22.14;33.22;94846.66;6155863;28;109253;-59
2023/12/12 13:06:00;;;;;;;9.73;7.20;;;;;;;22.14;32.74;94842.13;6136289;28;109374;-58
2023/12/12 13:09:09;;;;;;;10.37;7.33;;;;;;;22.14;32.72;94852.78;6125213;28;109297;-58
2023/12/12 13:12:13;;;;;;;10.23;7.00;;;;;;;22.16;33.23;94847.13;6135748;28;109168;-58
2023/12/12 13:15:16;;;;;;;11.10;8.00;;;;;;;22.17;32.92;94851.38;6135601;28;108892;-58
2023/12/12 13:18:19;;;;;;;11.27;7.83;;;;;;;22.15;32.84;94857.00;6137871;28;109201;-59
2023/12/12 13:21:22;;;;;;;11.30;7.07;;;;;;;22.17;32.82;94854.03;6124599;28;109211;-60
2023/12/12 13:24:27;;;;;;;9.53;6.33;;;;;;;22.16;33.22;94852.47;6151421;28;108902;-58
2023/12/12 13:27:30;;;;;;;9.50;6.23;;;;;;;22.15;32.75;94861.56;6159969;28;109091;-58
2023/12/12 13:30:33;;;;;;;10.97;6.83;;;;;;;22.15;32.83;94862.34;6155057;28;109258;-58
2023/12/12 13:33:36;;;;;;;10.87;6.00;;;;;;;22.15;32.95;94862.34;6154469;28;109207;-58
2023/12/12 13:36:40;;;;;;;10.27;5.77;;;;;;;22.16;32.74;94852.47;6159895;28;108927;-59
2023/12/12 13:39:44;;;;;;;8.70;6.03;;;;;;;22.16;33.25;94863.13;6154957;28;108832;-59
2023/12/12 13:42:48;;;;;;;8.37;6.00;;;;;;;22.16;32.84;94850.59;6129239;28;109116;-59
2023/12/12 13:45:51;;;;;;;9.80;6.03;;;;;;;22.17;32.90;94848.69;6139555;28;109243;-59
2023/12/12 13:48:54;;;;;;;7.33;5.97;;;;;;;22.17;32.69;94848.69;6139668;28;109971;-59
2023/12/12 13:51:58;;;;;;;9.20;5.60;;;;;;;22.18;32.69;94851.09;6139906;28;109107;-58
2023/12/12 13:55:03;;;;;;;7.20;5.03;;;;;;;22.18;32.72;94855.59;6128863;28;109080;-58
2023/12/12 13:58:07;;;;;;;8.10;5.53;;;;;;;22.17;33.13;94859.34;6139431;28;109319;-58
2023/12/12 14:01:10;;;;;;;7.10;5.30;;;;;;;22.17;32.66;94859.34;6139604;28;109312;-58
2023/12/12 14:04:13;;;;;;;8.33;5.53;;;;;;;22.15;32.78;94854.34;6139550;28;109162;-59
2023/12/12 14:07:18;;;;;;;7.53;5.00;;;;;;;22.15;33.06;94858.88;6131014;28;110380;-58